createdAt,value
2019-01-08T00:00:31.178Z,5.89
2019-01-08T00:01:31.191Z,5.86
2019-01-08T00:02:31.164Z,5.85
2019-01-08T00:03:31.153Z,5.83
2019-01-08T00:04:31.140Z,5.83
2019-01-08T00:05:31.133Z,5.82
2019-01-08T00:06:31.146Z,5.87
2019-01-08T00:07:31.157Z,5.87
2019-01-08T00:08:31.101Z,5.86
2019-01-08T00:09:31.135Z,5.86
2019-01-08T00:10:31.075Z,5.90
2019-01-08T00:11:31.093Z,5.82
2019-01-08T00:12:31.051Z,5.80
2019-01-08T00:13:31.043Z,5.98
2019-01-08T00:14:31.040Z,5.85
2019-01-08T00:15:31.040Z,5.85
2019-01-08T00:16:31.029Z,5.83
2019-01-08T00:17:31.022Z,5.85
2019-01-08T00:18:30.999Z,5.85
2019-01-08T00:19:31.694Z,5.87
2019-01-08T00:20:30.980Z,5.86
2019-01-08T00:21:30.981Z,5.87
2019-01-08T00:22:30.945Z,5.83
2019-01-08T00:23:30.932Z,5.87
2019-01-08T00:24:30.918Z,5.90
2019-01-08T00:25:30.945Z,5.87
2019-01-08T00:26:30.930Z,5.87
2019-01-08T00:27:30.920Z,5.83
2019-01-08T00:28:30.873Z,5.85
2019-01-08T00:29:30.872Z,5.87
2019-01-08T00:30:30.890Z,5.87
2019-01-08T00:31:30.853Z,5.85
2019-01-08T00:32:30.871Z,5.83
2019-01-08T00:33:30.826Z,5.89
2019-01-08T00:34:30.818Z,5.85
2019-01-08T00:35:30.803Z,5.83
2019-01-08T00:36:30.798Z,5.87
2019-01-08T00:37:30.799Z,5.83
2019-01-08T00:38:30.767Z,5.95
2019-01-08T00:39:30.755Z,6.00
2019-01-08T00:40:30.749Z,6.05
2019-01-08T00:41:30.730Z,5.98
2019-01-08T00:42:30.749Z,6.07
2019-01-08T00:43:30.708Z,6.10
2019-01-08T00:44:30.698Z,6.05
2019-01-08T00:45:30.702Z,6.03
2019-01-08T00:46:30.703Z,5.97
2019-01-08T00:47:30.694Z,6.00
2019-01-08T00:48:30.664Z,5.98
2019-01-08T00:49:30.645Z,5.94
2019-01-08T00:50:30.642Z,5.98
2019-01-08T00:51:30.624Z,5.95
2019-01-08T00:52:30.720Z,6.00
2019-01-08T00:53:30.605Z,6.00
2019-01-08T00:54:30.620Z,6.01
2019-01-08T00:55:30.580Z,6.10
2019-01-08T00:56:30.572Z,5.98
2019-01-08T00:57:30.593Z,6.05
2019-01-08T00:58:30.542Z,6.04
2019-01-08T00:59:30.538Z,5.97
2019-01-08T01:00:30.538Z,6.03
2019-01-08T01:01:30.743Z,6.04
2019-01-08T01:02:30.522Z,6.00
2019-01-08T01:03:30.492Z,6.01
2019-01-08T01:04:30.489Z,6.03
2019-01-08T01:05:30.474Z,5.98
2019-01-08T01:06:30.466Z,6.07
2019-01-08T01:07:30.497Z,6.03
2019-01-08T01:08:30.446Z,6.04
2019-01-08T01:09:30.429Z,6.00
2019-01-08T01:10:30.415Z,6.03
2019-01-08T01:11:30.484Z,5.95
2019-01-08T01:12:31.189Z,5.92
2019-01-08T01:13:30.414Z,5.97
2019-01-08T01:14:30.378Z,5.95
2019-01-08T01:15:30.358Z,6.00
2019-01-08T01:16:30.347Z,5.95
2019-01-08T01:17:30.341Z,5.98
2019-01-08T01:18:30.364Z,5.95
2019-01-08T01:19:30.322Z,6.03
2019-01-08T01:20:30.306Z,5.95
2019-01-08T01:21:30.295Z,5.94
2019-01-08T01:22:30.299Z,5.98
2019-01-08T01:23:30.299Z,5.94
2019-01-08T01:24:30.269Z,5.98
2019-01-08T01:25:30.255Z,5.94
2019-01-08T01:26:30.250Z,6.03
2019-01-08T01:27:30.232Z,6.00
2019-01-08T01:28:30.261Z,5.95
2019-01-08T01:29:30.213Z,6.01
2019-01-08T01:30:30.232Z,6.05
2019-01-08T01:31:30.377Z,5.98
2019-01-08T01:32:30.175Z,6.01
2019-01-08T01:33:30.197Z,6.04
2019-01-08T01:34:30.147Z,6.04
2019-01-08T01:35:30.142Z,5.95
2019-01-08T01:36:30.121Z,5.98
2019-01-08T01:37:30.122Z,5.97
2019-01-08T01:38:30.154Z,5.98
2019-01-08T01:39:30.091Z,6.01
2019-01-08T01:40:30.089Z,6.01
2019-01-08T01:41:30.090Z,6.03
2019-01-08T01:42:30.068Z,5.98
2019-01-08T01:43:30.092Z,5.94
2019-01-08T01:44:30.046Z,5.98
2019-01-08T01:45:30.031Z,5.98
2019-01-08T01:46:30.016Z,6.00
2019-01-08T01:47:30.034Z,6.05
2019-01-08T01:48:30.050Z,6.08
2019-01-08T01:49:29.982Z,6.07
2019-01-08T01:50:29.973Z,6.04
2019-01-08T01:51:30.004Z,6.07
2019-01-08T01:52:29.957Z,6.08
2019-01-08T01:53:29.982Z,6.07
2019-01-08T01:54:29.938Z,6.03
2019-01-08T01:55:29.920Z,6.08
2019-01-08T01:56:29.934Z,6.01
2019-01-08T01:57:29.896Z,6.04
2019-01-08T01:58:29.896Z,6.07
2019-01-08T01:59:29.907Z,6.19
2019-01-08T02:00:29.869Z,6.07
2019-01-08T02:01:29.889Z,6.05
2019-01-08T02:02:29.890Z,6.10
2019-01-08T02:03:29.834Z,6.18
2019-01-08T02:04:29.847Z,6.11
2019-01-08T02:05:29.822Z,6.16
2019-01-08T02:06:29.819Z,6.13
2019-01-08T02:07:29.795Z,6.11
2019-01-08T02:08:29.772Z,6.13
2019-01-08T02:09:29.783Z,6.13
2019-01-08T02:10:29.755Z,6.13
2019-01-08T02:11:29.761Z,6.10
2019-01-08T02:12:29.732Z,6.19
2019-01-08T02:13:29.720Z,6.24
2019-01-08T02:14:29.756Z,6.11
2019-01-08T02:15:29.702Z,6.18
2019-01-08T02:16:29.698Z,6.21
2019-01-08T02:17:29.677Z,6.19
2019-01-08T02:18:29.679Z,6.22
2019-01-08T02:19:29.685Z,6.26
2019-01-08T02:20:29.647Z,6.22
2019-01-08T02:21:29.649Z,6.21
2019-01-08T02:22:29.618Z,6.18
2019-01-08T02:23:29.611Z,6.29
2019-01-08T02:24:29.620Z,6.22
2019-01-08T02:25:29.597Z,6.18
2019-01-08T02:26:29.575Z,6.21
2019-01-08T02:27:29.563Z,6.21
2019-01-08T02:28:29.556Z,6.21
2019-01-08T02:29:29.558Z,6.15
2019-01-08T02:30:29.531Z,6.32
2019-01-08T02:31:29.553Z,6.27
2019-01-08T02:32:29.508Z,6.21
2019-01-08T02:33:29.522Z,6.19
2019-01-08T02:34:29.521Z,6.32
2019-01-08T02:35:29.499Z,6.26
2019-01-08T02:36:29.471Z,6.24
2019-01-08T02:37:29.453Z,6.24
2019-01-08T02:38:29.443Z,6.22
2019-01-08T02:39:29.442Z,6.29
2019-01-08T02:40:29.446Z,6.24
2019-01-08T02:41:29.490Z,6.26
2019-01-08T02:42:29.411Z,6.27
2019-01-08T02:43:29.423Z,6.30
2019-01-08T02:44:29.494Z,6.26
2019-01-08T02:45:29.391Z,6.35
2019-01-08T02:46:29.462Z,6.35
2019-01-08T02:47:29.340Z,6.35
2019-01-08T02:48:29.327Z,6.34
2019-01-08T02:49:29.313Z,6.41
2019-01-08T02:50:29.335Z,6.38
2019-01-08T02:51:29.316Z,6.41
2019-01-08T02:52:29.287Z,6.32
2019-01-08T02:53:29.277Z,6.37
2019-01-08T02:54:29.386Z,6.53
2019-01-08T02:55:29.267Z,6.30
2019-01-08T02:56:29.237Z,6.44
2019-01-08T02:57:29.249Z,6.44
2019-01-08T02:58:29.277Z,6.44
2019-01-08T02:59:29.206Z,6.45
2019-01-08T03:00:29.221Z,6.53
2019-01-08T03:01:29.189Z,6.42
2019-01-08T03:02:29.167Z,6.45
2019-01-08T03:03:29.155Z,6.56
2019-01-08T03:04:29.151Z,6.49
2019-01-08T03:05:29.157Z,6.49
2019-01-08T03:06:29.127Z,6.52
2019-01-08T03:07:29.116Z,6.57
2019-01-08T03:08:29.116Z,6.53
2019-01-08T03:09:29.089Z,6.57
2019-01-08T03:10:29.105Z,6.57
2019-01-08T03:11:29.098Z,6.59
2019-01-08T03:12:29.060Z,6.57
2019-01-08T03:13:29.046Z,6.63
2019-01-08T03:14:29.037Z,6.59
2019-01-08T03:15:29.037Z,6.63
2019-01-08T03:16:29.015Z,6.70
2019-01-08T03:17:28.996Z,6.65
2019-01-08T03:18:29.012Z,6.59
2019-01-08T03:19:28.984Z,6.62
2019-01-08T03:20:28.985Z,6.65
2019-01-08T03:21:28.963Z,6.65
2019-01-08T03:22:28.938Z,6.60
2019-01-08T03:23:28.936Z,6.65
2019-01-08T03:24:28.977Z,6.70
2019-01-08T03:25:28.912Z,6.62
2019-01-08T03:26:28.916Z,6.75
2019-01-08T03:27:28.935Z,6.73
2019-01-08T03:28:28.876Z,6.66
2019-01-08T03:29:33.514Z,6.63
2019-01-08T03:30:29.862Z,6.74
2019-01-08T03:31:28.865Z,6.65
2019-01-08T03:32:28.845Z,6.62
2019-01-08T03:33:28.819Z,6.67
2019-01-08T03:34:28.838Z,6.73
2019-01-08T03:35:28.792Z,6.73
2019-01-08T03:36:28.800Z,6.65
2019-01-08T03:37:28.770Z,6.73
2019-01-08T03:38:28.780Z,6.75
2019-01-08T03:39:28.751Z,6.73
2019-01-08T03:40:28.734Z,6.75
2019-01-08T03:41:28.756Z,6.73
2019-01-08T03:42:28.719Z,6.77
2019-01-08T03:43:28.702Z,6.66
2019-01-08T03:44:28.697Z,6.78
2019-01-08T03:45:28.678Z,6.77
2019-01-08T03:46:28.693Z,6.70
2019-01-08T03:47:28.713Z,6.71
2019-01-08T03:48:28.655Z,6.67
2019-01-08T03:49:28.640Z,6.67
2019-01-08T03:50:28.628Z,6.77
2019-01-08T03:51:28.629Z,6.73
2019-01-08T03:52:28.634Z,6.71
2019-01-08T03:53:28.593Z,6.80
2019-01-08T03:54:28.578Z,6.80
2019-01-08T03:55:28.585Z,6.80
2019-01-08T03:56:28.607Z,6.81
2019-01-08T03:57:28.546Z,6.85
2019-01-08T03:58:28.554Z,6.74
2019-01-08T03:59:28.527Z,6.78
2019-01-08T04:00:28.514Z,6.71
2019-01-08T04:01:28.526Z,6.73
2019-01-08T04:02:28.489Z,6.73
2019-01-08T04:03:28.506Z,6.66
2019-01-08T04:04:28.470Z,6.70
2019-01-08T04:05:28.455Z,6.71
2019-01-08T04:06:28.483Z,6.67
2019-01-08T04:07:28.432Z,6.67
2019-01-08T04:08:28.441Z,6.71
2019-01-08T04:09:28.414Z,6.66
2019-01-08T04:10:28.408Z,6.71
2019-01-08T04:11:28.391Z,6.71
2019-01-08T04:12:28.410Z,6.74
2019-01-08T04:13:28.368Z,6.67
2019-01-08T04:14:28.376Z,6.67
2019-01-08T04:15:28.344Z,6.75
2019-01-08T04:16:28.334Z,6.66
2019-01-08T04:17:28.351Z,6.70
2019-01-08T04:18:28.317Z,6.67
2019-01-08T04:19:28.306Z,6.62
2019-01-08T04:20:28.299Z,6.67
2019-01-08T04:21:28.294Z,6.70
2019-01-08T04:22:28.292Z,6.70
2019-01-08T04:23:29.456Z,6.65
2019-01-08T04:24:28.248Z,6.66
2019-01-08T04:25:28.234Z,6.60
2019-01-08T04:26:28.220Z,6.73
2019-01-08T04:27:28.234Z,6.70
2019-01-08T04:28:28.206Z,6.74
2019-01-08T04:29:28.189Z,6.67
2019-01-08T04:30:28.208Z,6.63
2019-01-08T04:31:28.172Z,6.71
2019-01-08T04:32:28.174Z,6.74
2019-01-08T04:33:28.142Z,6.70
2019-01-08T04:34:28.134Z,6.66
2019-01-08T04:35:28.123Z,6.65
2019-01-08T04:36:28.112Z,6.66
2019-01-08T04:37:28.140Z,6.63
2019-01-08T04:38:28.086Z,6.71
2019-01-08T04:39:28.078Z,6.66
2019-01-08T04:40:28.069Z,6.73
2019-01-08T04:41:28.061Z,6.75
2019-01-08T04:42:28.072Z,6.65
2019-01-08T04:43:28.044Z,6.66
2019-01-08T04:44:28.044Z,6.74
2019-01-08T04:45:28.012Z,6.71
2019-01-08T04:46:27.997Z,6.67
2019-01-08T04:47:28.012Z,6.70
2019-01-08T04:48:27.975Z,6.62
2019-01-08T04:49:27.966Z,6.66
2019-01-08T04:50:27.954Z,6.71
2019-01-08T04:51:27.940Z,6.70
2019-01-08T04:52:27.963Z,6.67
2019-01-08T04:53:27.939Z,6.66
2019-01-08T04:54:27.925Z,6.65
2019-01-08T04:55:27.908Z,6.67
2019-01-08T04:56:27.889Z,6.70
2019-01-08T04:57:27.877Z,6.74
2019-01-08T04:58:27.912Z,6.66
2019-01-08T04:59:27.857Z,6.66
2019-01-08T05:00:27.845Z,6.65
2019-01-08T05:01:28.074Z,6.66
2019-01-08T05:02:27.874Z,6.70
2019-01-08T05:03:27.833Z,6.75
2019-01-08T05:04:27.844Z,6.77
2019-01-08T05:05:27.784Z,6.75
2019-01-08T05:06:27.797Z,6.71
2019-01-08T05:07:27.769Z,6.73
2019-01-08T05:08:27.781Z,6.74
2019-01-08T05:09:27.747Z,6.71
2019-01-08T05:10:27.739Z,6.74
2019-01-08T05:11:27.723Z,6.74
2019-01-08T05:12:27.709Z,6.73
2019-01-08T05:13:27.717Z,6.70
2019-01-08T05:14:27.685Z,6.71
2019-01-08T05:15:27.697Z,6.67
2019-01-08T05:16:27.663Z,6.73
2019-01-08T05:17:27.655Z,6.56
2019-01-08T05:18:27.655Z,6.67
2019-01-08T05:19:27.627Z,6.66
2019-01-08T05:20:27.627Z,6.59
2019-01-08T05:21:27.609Z,6.60
2019-01-08T05:22:27.599Z,6.63
2019-01-08T05:23:27.609Z,6.48
2019-01-08T05:24:27.585Z,6.52
2019-01-08T05:25:27.559Z,6.47
2019-01-08T05:26:27.547Z,6.52
2019-01-08T05:27:27.537Z,6.48
2019-01-08T05:28:27.549Z,6.47
2019-01-08T05:29:27.527Z,6.53
2019-01-08T05:30:27.502Z,6.56
2019-01-08T05:31:27.498Z,6.55
2019-01-08T05:32:27.487Z,6.47
2019-01-08T05:33:27.603Z,6.55
2019-01-08T05:34:27.461Z,6.49
2019-01-08T05:35:27.449Z,6.52
2019-01-08T05:36:27.439Z,6.53
2019-01-08T05:37:27.426Z,6.55
2019-01-08T05:38:27.417Z,6.53
2019-01-08T05:39:27.424Z,6.56
2019-01-08T05:40:27.408Z,6.59
2019-01-08T05:41:27.381Z,6.63
2019-01-08T05:42:27.374Z,6.49
2019-01-08T05:43:27.357Z,6.48
2019-01-08T05:44:27.370Z,6.66
2019-01-08T05:45:27.342Z,6.48
2019-01-08T05:46:27.319Z,6.45
2019-01-08T05:47:27.319Z,6.60
2019-01-08T05:48:27.301Z,6.45
2019-01-08T05:49:27.305Z,6.44
2019-01-08T05:50:27.275Z,6.49
2019-01-08T05:51:27.272Z,6.57
2019-01-08T05:52:27.260Z,6.56
2019-01-08T05:53:27.249Z,6.55
2019-01-08T05:54:27.250Z,6.48
2019-01-08T05:55:27.219Z,6.52
2019-01-08T05:56:27.207Z,6.49
2019-01-08T05:57:27.198Z,6.47
2019-01-08T05:58:27.190Z,6.47
2019-01-08T05:59:27.203Z,6.49
2019-01-08T06:00:27.258Z,6.53
2019-01-08T06:01:27.151Z,6.47
2019-01-08T06:02:27.141Z,6.49
2019-01-08T06:03:27.128Z,6.57
2019-01-08T06:04:27.133Z,6.48
2019-01-08T06:05:27.111Z,6.59
2019-01-08T06:06:27.118Z,6.48
2019-01-08T06:07:27.099Z,6.48
2019-01-08T06:08:27.074Z,6.48
2019-01-08T06:09:27.084Z,6.48
2019-01-08T06:10:27.049Z,6.57
2019-01-08T06:11:27.042Z,6.59
2019-01-08T06:12:27.030Z,6.60
2019-01-08T06:13:27.017Z,6.56
2019-01-08T06:14:27.028Z,6.59
2019-01-08T06:15:27.026Z,6.59
2019-01-08T06:16:26.984Z,6.62
2019-01-08T06:17:26.977Z,6.62
2019-01-08T06:18:26.952Z,6.59
2019-01-08T06:19:26.955Z,6.59
2019-01-08T06:20:26.962Z,6.62
2019-01-08T06:21:26.972Z,6.59
2019-01-08T06:22:26.914Z,6.60
2019-01-08T06:23:26.905Z,6.65
2019-01-08T06:24:26.914Z,6.63
2019-01-08T06:25:26.888Z,6.60
2019-01-08T06:26:26.872Z,6.63
2019-01-08T06:27:26.861Z,6.65
2019-01-08T06:28:26.852Z,6.63
2019-01-08T06:29:26.843Z,6.63
2019-01-08T06:30:26.854Z,6.63
2019-01-08T06:31:28.058Z,6.57
2019-01-08T06:32:26.800Z,6.60
2019-01-08T06:33:26.786Z,6.48
2019-01-08T06:34:26.799Z,6.56
2019-01-08T06:35:26.798Z,6.45
2019-01-08T06:36:26.801Z,6.62
2019-01-08T06:37:26.756Z,6.62
2019-01-08T06:38:26.742Z,6.65
2019-01-08T06:39:26.770Z,6.63
2019-01-08T06:40:26.722Z,6.66
2019-01-08T06:41:26.693Z,6.63
2019-01-08T06:42:26.684Z,6.62
2019-01-08T06:43:26.679Z,6.60
2019-01-08T06:44:26.665Z,6.57
2019-01-08T06:45:26.679Z,6.55
2019-01-08T06:46:26.682Z,6.59
2019-01-08T06:47:26.626Z,6.52
2019-01-08T06:48:26.640Z,6.53
2019-01-08T06:49:26.613Z,6.52
2019-01-08T06:50:26.616Z,6.48
2019-01-08T06:51:26.673Z,6.48
2019-01-08T06:52:26.579Z,6.52
2019-01-08T06:53:26.563Z,6.55
2019-01-08T06:54:26.641Z,6.55
2019-01-08T06:55:26.590Z,6.39
2019-01-08T06:56:26.526Z,6.45
2019-01-08T06:57:26.544Z,6.48
2019-01-08T06:58:26.543Z,6.52
2019-01-08T06:59:26.500Z,6.48
2019-01-08T07:00:33.212Z,6.56
2019-01-08T07:01:27.479Z,6.48
2019-01-08T07:02:26.495Z,6.48
2019-01-08T07:03:26.447Z,6.49
2019-01-08T07:04:26.449Z,6.49
2019-01-08T07:05:26.427Z,6.48
2019-01-08T07:06:26.453Z,6.53
2019-01-08T07:07:26.404Z,6.57
2019-01-08T07:08:26.389Z,6.48
2019-01-08T07:09:26.381Z,6.49
2019-01-08T07:10:26.372Z,6.52
2019-01-08T07:11:26.395Z,6.52
2019-01-08T07:12:26.700Z,6.53
2019-01-08T07:13:26.332Z,6.55
2019-01-08T07:14:26.322Z,6.47
2019-01-08T07:15:26.313Z,6.52
2019-01-08T07:16:26.320Z,6.49
2019-01-08T07:17:26.296Z,6.53
2019-01-08T07:18:26.282Z,6.48
2019-01-08T07:19:26.288Z,6.55
2019-01-08T07:20:26.272Z,6.49
2019-01-08T07:21:26.276Z,6.59
2019-01-08T07:22:26.231Z,6.57
2019-01-08T07:23:26.227Z,6.66
2019-01-08T07:24:27.480Z,6.66
2019-01-08T07:25:26.195Z,6.74
2019-01-08T07:26:26.215Z,6.70
2019-01-08T07:27:26.183Z,6.73
2019-01-08T07:28:26.163Z,6.77
2019-01-08T07:29:26.157Z,6.81
2019-01-08T07:30:26.147Z,6.85
2019-01-08T07:31:26.151Z,6.85
2019-01-08T07:32:26.129Z,6.92
2019-01-08T07:33:26.111Z,6.85
2019-01-08T07:34:26.094Z,6.89
2019-01-08T07:35:26.093Z,6.89
2019-01-08T07:36:26.092Z,6.92
2019-01-08T07:37:26.079Z,6.93
2019-01-08T07:38:26.071Z,6.88
2019-01-08T07:39:26.042Z,6.95
2019-01-08T07:40:26.038Z,6.91
2019-01-08T07:41:26.053Z,6.81
2019-01-08T07:42:26.008Z,6.77
2019-01-08T07:43:25.994Z,6.71
2019-01-08T07:44:25.987Z,6.70
2019-01-08T07:45:25.978Z,6.73
2019-01-08T07:46:25.970Z,6.67
2019-01-08T07:47:25.967Z,6.63
2019-01-08T07:48:25.986Z,6.59
2019-01-08T07:49:25.929Z,6.59
2019-01-08T07:50:25.914Z,6.62
2019-01-08T07:51:25.903Z,6.60
2019-01-08T07:52:25.972Z,6.65
2019-01-08T07:53:25.899Z,6.70
2019-01-08T07:54:25.879Z,6.70
2019-01-08T07:55:25.867Z,6.85
2019-01-08T07:56:25.845Z,6.89
2019-01-08T07:57:25.867Z,6.92
2019-01-08T07:58:25.827Z,6.95
2019-01-08T07:59:25.853Z,6.98
2019-01-08T08:00:25.805Z,7.00
2019-01-08T08:01:25.832Z,6.89
2019-01-08T08:02:25.799Z,6.92
2019-01-08T08:03:25.766Z,6.92
2019-01-08T08:04:25.759Z,6.85
2019-01-08T08:05:25.757Z,6.93
2019-01-08T08:06:25.766Z,6.84
2019-01-08T08:07:25.743Z,6.85
2019-01-08T08:08:25.717Z,6.78
2019-01-08T08:09:25.723Z,6.74
2019-01-08T08:10:25.690Z,6.73
2019-01-08T08:11:25.688Z,6.67
2019-01-08T08:12:25.716Z,6.77
2019-01-08T08:13:25.657Z,6.67
2019-01-08T08:14:25.646Z,6.65
2019-01-08T08:15:25.630Z,6.74
2019-01-08T08:16:25.624Z,6.65
2019-01-08T08:17:25.638Z,6.62
2019-01-08T08:18:25.604Z,6.63
2019-01-08T08:19:25.590Z,6.62
2019-01-08T08:20:25.576Z,6.63
2019-01-08T08:21:25.562Z,6.62
2019-01-08T08:22:25.579Z,6.60
2019-01-08T08:23:25.543Z,6.62
2019-01-08T08:24:25.530Z,6.53
2019-01-08T08:25:25.544Z,6.55
2019-01-08T08:26:25.510Z,6.45
2019-01-08T08:27:25.517Z,6.48
2019-01-08T08:28:25.483Z,6.56
2019-01-08T08:29:25.492Z,6.48
2019-01-08T08:30:26.299Z,6.48
2019-01-08T08:31:25.528Z,6.44
2019-01-08T08:32:25.444Z,6.44
2019-01-08T08:33:25.445Z,6.47
2019-01-08T08:34:25.426Z,6.37
2019-01-08T08:35:25.404Z,6.44
2019-01-08T08:36:25.391Z,6.45
2019-01-08T08:37:25.379Z,6.38
2019-01-08T08:38:25.393Z,6.35
2019-01-08T08:39:25.362Z,6.35
2019-01-08T08:40:25.344Z,6.37
2019-01-08T08:41:25.359Z,6.32
2019-01-08T08:42:25.331Z,6.26
2019-01-08T08:43:25.351Z,6.32
2019-01-08T08:44:25.327Z,6.27
2019-01-08T08:45:25.314Z,6.29
2019-01-08T08:46:25.277Z,6.27
2019-01-08T08:47:25.266Z,6.30
2019-01-08T08:48:25.271Z,6.26
2019-01-08T08:49:25.244Z,6.32
2019-01-08T08:50:25.238Z,6.22
2019-01-08T08:51:25.233Z,6.26
2019-01-08T08:52:25.217Z,6.22
2019-01-08T08:53:25.229Z,6.27
2019-01-08T08:54:25.206Z,6.22
2019-01-08T08:55:25.200Z,6.29
2019-01-08T08:56:25.175Z,6.24
2019-01-08T08:57:25.155Z,6.34
2019-01-08T08:58:25.178Z,6.27
2019-01-08T08:59:25.171Z,6.32
2019-01-08T09:00:25.124Z,6.34
2019-01-08T09:01:25.133Z,6.32
2019-01-08T09:02:25.109Z,6.34
2019-01-08T09:03:25.106Z,6.35
2019-01-08T09:04:25.074Z,6.34
2019-01-08T09:05:25.068Z,6.34
2019-01-08T09:06:25.056Z,6.35
2019-01-08T09:07:25.072Z,6.38
2019-01-08T09:08:25.078Z,6.30
2019-01-08T09:09:25.022Z,6.34
2019-01-08T09:10:25.010Z,6.29
2019-01-08T09:11:25.002Z,6.32
2019-01-08T09:12:25.004Z,6.34
2019-01-08T09:13:25.019Z,6.38
2019-01-08T09:14:24.962Z,6.32
2019-01-08T09:15:24.961Z,6.29
2019-01-08T09:16:24.938Z,6.30
2019-01-08T09:17:24.930Z,6.37
2019-01-08T09:18:24.941Z,6.29
2019-01-08T09:19:24.957Z,6.35
2019-01-08T09:20:24.920Z,6.37
2019-01-08T09:21:24.903Z,6.38
2019-01-08T09:22:24.875Z,6.38
2019-01-08T09:23:24.897Z,6.41
2019-01-08T09:24:24.855Z,6.42
2019-01-08T09:25:24.844Z,6.42
2019-01-08T09:26:24.830Z,6.45
2019-01-08T09:27:24.811Z,6.45
2019-01-08T09:28:24.814Z,6.48
2019-01-08T09:29:24.822Z,6.55
2019-01-08T09:30:24.787Z,6.52
2019-01-08T09:31:24.784Z,6.41
2019-01-08T09:32:24.786Z,6.44
2019-01-08T09:33:24.751Z,6.47
2019-01-08T09:34:24.757Z,6.45
2019-01-08T09:35:24.731Z,6.49
2019-01-08T09:36:24.715Z,6.48
2019-01-08T09:37:24.716Z,6.45
2019-01-08T09:38:24.688Z,6.39
2019-01-08T09:39:24.699Z,6.53
2019-01-08T09:40:24.670Z,6.48
2019-01-08T09:41:24.663Z,6.49
2019-01-08T09:42:24.662Z,6.45
2019-01-08T09:43:24.645Z,6.39
2019-01-08T09:44:24.647Z,6.47
2019-01-08T09:45:24.607Z,6.48
2019-01-08T09:46:24.602Z,6.45
2019-01-08T09:47:24.597Z,6.45
2019-01-08T09:48:24.586Z,6.44
2019-01-08T09:49:26.024Z,6.48
2019-01-08T09:50:24.559Z,6.47
2019-01-08T09:51:24.544Z,6.48
2019-01-08T09:52:24.542Z,6.48
2019-01-08T09:53:24.521Z,6.35
2019-01-08T09:54:24.523Z,6.39
2019-01-08T09:55:24.522Z,6.45
2019-01-08T09:56:24.496Z,6.45
2019-01-08T09:57:24.475Z,6.38
2019-01-08T09:58:24.480Z,6.29
2019-01-08T09:59:24.488Z,6.44
2019-01-08T10:00:24.444Z,6.39
2019-01-08T10:01:24.435Z,6.38
2019-01-08T10:02:24.418Z,6.39
2019-01-08T10:03:24.409Z,6.35
2019-01-08T10:04:24.425Z,6.39
2019-01-08T10:05:24.392Z,6.34
2019-01-08T10:06:24.381Z,6.35
2019-01-08T10:07:24.358Z,6.38
2019-01-08T10:08:24.355Z,6.39
2019-01-08T10:09:24.353Z,6.32
2019-01-08T10:10:24.334Z,6.35
2019-01-08T10:11:24.315Z,6.37
2019-01-08T10:12:24.317Z,6.35
2019-01-08T10:13:24.301Z,6.35
2019-01-08T10:14:24.297Z,6.37
2019-01-08T10:15:24.288Z,6.35
2019-01-08T10:16:24.260Z,6.35
2019-01-08T10:17:24.259Z,6.32
2019-01-08T10:18:24.243Z,6.38
2019-01-08T10:19:24.272Z,6.30
2019-01-08T10:20:24.216Z,6.37
2019-01-08T10:21:24.238Z,6.38
2019-01-08T10:22:24.202Z,6.35
2019-01-08T10:23:24.191Z,6.39
2019-01-08T10:24:24.249Z,6.38
2019-01-08T10:25:24.190Z,6.29
2019-01-08T10:26:24.147Z,6.47
2019-01-08T10:27:24.225Z,6.39
2019-01-08T10:28:24.136Z,6.45
2019-01-08T10:29:24.263Z,6.45
2019-01-08T10:30:24.123Z,6.42
2019-01-08T10:31:32.091Z,6.35
2019-01-08T10:32:25.094Z,6.34
2019-01-08T10:33:24.071Z,6.47
2019-01-08T10:34:24.336Z,6.44
2019-01-08T10:35:24.058Z,6.48
2019-01-08T10:36:24.045Z,6.52
2019-01-08T10:37:24.028Z,6.42
2019-01-08T10:38:24.017Z,6.45
2019-01-08T10:39:24.381Z,6.42
2019-01-08T10:40:24.016Z,6.44
2019-01-08T10:41:24.000Z,6.53
2019-01-08T10:42:23.977Z,6.41
2019-01-08T10:43:24.012Z,6.52
2019-01-08T10:44:23.954Z,6.45
2019-01-08T10:45:23.984Z,6.56
2019-01-08T10:46:23.939Z,6.44
2019-01-08T10:47:23.928Z,6.49
2019-01-08T10:48:23.914Z,6.45
2019-01-08T10:49:23.929Z,6.48
2019-01-08T10:50:23.914Z,6.48
2019-01-08T10:51:23.877Z,6.52
2019-01-08T10:52:23.945Z,6.55
2019-01-08T10:53:23.855Z,6.47
2019-01-08T10:54:23.852Z,6.52
2019-01-08T10:55:23.879Z,6.45
2019-01-08T10:56:23.813Z,6.53
2019-01-08T10:57:23.810Z,6.52
2019-01-08T10:58:23.802Z,6.48
2019-01-08T10:59:23.786Z,6.52
2019-01-08T11:00:23.805Z,6.52
2019-01-08T11:01:23.767Z,6.49
2019-01-08T11:02:23.754Z,6.56
2019-01-08T11:03:23.751Z,6.42
2019-01-08T11:04:23.740Z,6.42
2019-01-08T11:05:25.681Z,6.41
2019-01-08T11:06:23.731Z,6.52
2019-01-08T11:07:23.704Z,6.41
2019-01-08T11:08:23.702Z,6.55
2019-01-08T11:09:23.676Z,6.47
2019-01-08T11:10:23.717Z,6.49
2019-01-08T11:11:23.662Z,6.41
2019-01-08T11:12:23.654Z,6.47
2019-01-08T11:13:23.643Z,6.42
2019-01-08T11:14:23.627Z,6.53
2019-01-08T11:15:23.633Z,6.49
2019-01-08T11:16:23.610Z,6.53
2019-01-08T11:17:23.599Z,6.45
2019-01-08T11:18:23.582Z,6.47
2019-01-08T11:19:23.563Z,6.49
2019-01-08T11:20:23.594Z,6.48
2019-01-08T11:21:23.572Z,6.42
2019-01-08T11:22:25.286Z,6.41
2019-01-08T11:23:23.530Z,6.47
2019-01-08T11:24:23.518Z,6.56
2019-01-08T11:25:23.503Z,6.52
2019-01-08T11:26:23.523Z,6.44
2019-01-08T11:27:23.489Z,6.56
2019-01-08T11:28:23.486Z,6.56
2019-01-08T11:29:23.459Z,6.45
2019-01-08T11:30:23.454Z,6.52
2019-01-08T11:31:23.467Z,6.49
2019-01-08T11:32:23.434Z,6.49
2019-01-08T11:33:23.498Z,6.42
2019-01-08T11:34:23.407Z,6.45
2019-01-08T11:35:23.436Z,6.44
2019-01-08T11:36:23.439Z,6.38
2019-01-08T11:37:23.378Z,6.49
2019-01-08T11:38:23.364Z,6.53
2019-01-08T11:39:23.359Z,6.55
2019-01-08T11:40:23.347Z,6.52
2019-01-08T11:41:23.353Z,6.44
2019-01-08T11:42:23.325Z,6.52
2019-01-08T11:43:23.308Z,6.53
2019-01-08T11:44:24.439Z,6.47
2019-01-08T11:45:23.277Z,6.49
2019-01-08T11:46:23.294Z,6.53
2019-01-08T11:47:23.258Z,6.53
2019-01-08T11:48:23.252Z,6.48
2019-01-08T11:49:23.235Z,6.53
2019-01-08T11:50:23.225Z,6.47
2019-01-08T11:51:23.249Z,6.48
2019-01-08T11:52:23.198Z,6.55
2019-01-08T11:53:23.213Z,6.53
2019-01-08T11:54:23.208Z,6.42
2019-01-08T11:55:23.189Z,6.48
2019-01-08T11:56:23.177Z,6.48
2019-01-08T11:57:23.151Z,6.55
2019-01-08T11:58:23.138Z,6.45
2019-01-08T11:59:23.140Z,6.59
2019-01-08T12:00:23.113Z,6.42
2019-01-08T12:01:23.148Z,6.47
2019-01-08T12:02:23.105Z,6.55
2019-01-08T12:03:23.080Z,6.56
2019-01-08T12:04:23.073Z,6.47
2019-01-08T12:05:23.072Z,6.55
2019-01-08T12:06:23.079Z,6.49
2019-01-08T12:07:30.938Z,6.52
2019-01-08T12:08:24.037Z,6.52
2019-01-08T12:09:23.020Z,6.47
2019-01-08T12:10:23.016Z,6.48
2019-01-08T12:11:23.017Z,6.48
2019-01-08T12:12:22.992Z,6.53
2019-01-08T12:13:22.964Z,6.55
2019-01-08T12:14:22.957Z,6.52
2019-01-08T12:15:22.959Z,6.47
2019-01-08T12:16:22.935Z,6.57
2019-01-08T12:17:22.939Z,6.47
2019-01-08T12:18:22.912Z,6.57
2019-01-08T12:19:22.912Z,6.59
2019-01-08T12:20:22.898Z,6.59
2019-01-08T12:21:22.873Z,6.62
2019-01-08T12:22:22.926Z,6.59
2019-01-08T12:23:22.865Z,6.62
2019-01-08T12:24:22.845Z,6.63
2019-01-08T12:25:22.879Z,6.63
2019-01-08T12:26:22.819Z,6.65
2019-01-08T12:27:22.827Z,6.66
2019-01-08T12:28:22.795Z,6.67
2019-01-08T12:29:22.793Z,6.67
2019-01-08T12:30:22.819Z,6.63
2019-01-08T12:31:22.762Z,6.65
2019-01-08T12:32:22.798Z,6.67
2019-01-08T12:33:22.751Z,6.63
2019-01-08T12:34:22.731Z,6.77
2019-01-08T12:35:22.715Z,6.70
2019-01-08T12:36:22.713Z,6.75
2019-01-08T12:37:22.745Z,6.74
2019-01-08T12:38:22.687Z,6.73
2019-01-08T12:39:22.672Z,6.71
2019-01-08T12:40:22.663Z,6.71
2019-01-08T12:41:22.663Z,6.75
2019-01-08T12:42:22.653Z,6.77
2019-01-08T12:43:22.687Z,6.74
2019-01-08T12:44:22.619Z,6.77
2019-01-08T12:45:22.604Z,6.81
2019-01-08T12:46:22.605Z,6.71
2019-01-08T12:47:22.598Z,6.77
2019-01-08T12:48:22.573Z,6.78
2019-01-08T12:49:22.558Z,6.75
2019-01-08T12:50:22.548Z,6.77
2019-01-08T12:51:22.538Z,6.71
2019-01-08T12:52:22.552Z,6.75
2019-01-08T12:53:22.530Z,6.80
2019-01-08T12:54:22.514Z,6.73
2019-01-08T12:55:22.488Z,6.75
2019-01-08T12:56:22.478Z,6.74
2019-01-08T12:57:22.484Z,6.81
2019-01-08T12:58:22.476Z,6.85
2019-01-08T12:59:22.462Z,6.81
2019-01-08T13:00:22.446Z,6.80
2019-01-08T13:01:22.438Z,6.83
2019-01-08T13:02:22.435Z,6.85
2019-01-08T13:03:22.419Z,6.89
2019-01-08T13:04:22.394Z,6.81
2019-01-08T13:05:22.384Z,6.78
2019-01-08T13:06:22.366Z,6.89
2019-01-08T13:07:22.360Z,6.81
2019-01-08T13:08:22.360Z,6.85
2019-01-08T13:09:22.346Z,6.85
2019-01-08T13:10:22.360Z,6.85
2019-01-08T13:11:22.315Z,6.85
2019-01-08T13:12:22.297Z,6.89
2019-01-08T13:13:22.311Z,6.89
2019-01-08T13:14:22.275Z,6.92
2019-01-08T13:15:22.259Z,6.89
2019-01-08T13:16:22.255Z,6.88
2019-01-08T13:17:22.238Z,6.88
2019-01-08T13:18:22.257Z,6.88